Time;durP1;ratioP1;P1;durP2;ratioP2;P2;SDS_P1;SDS_P2;PMS_P1;PMS_P2;Temp;Humidity;BMP_temperature;BMP_pressure;BME280_temperature;BME280_humidity;BME280_pressure;Samples;Min_cycle;Max_cycle;Signal;HPM_P1;HPM_P2
2023/10/24 00:06:35;;;;;;;7.05;4.95;;;;;;;14.07;90.46;94993.66;6160153;23;20205;-90
2023/10/24 00:09:05;;;;;;;5.85;4.63;;;;;;;14.06;90.83;94994.69;6180529;23;20253;-90
2023/10/24 00:11:49;;;;;;;5.07;4.60;;;;;;;14.08;90.95;94996.06;6180964;23;20175;-91
2023/10/24 00:14:28;;;;;;;4.93;4.43;;;;;;;14.10;90.87;94990.66;6179925;23;20189;-91
2023/10/24 00:17:00;;;;;;;6.53;4.70;;;;;;;14.10;90.70;94994.03;6179468;23;20194;-90
2023/10/24 00:19:50;;;;;;;4.45;4.05;;;;;;;14.13;90.59;94998.00;6180019;23;20197;-91
2023/10/24 00:22:33;;;;;;;4.90;4.50;;;;;;;14.16;90.31;95000.19;6180658;23;20174;-90
2023/10/24 00:25:19;;;;;;;5.15;4.65;;;;;;;14.21;89.95;95012.50;6178842;23;20202;-91
2023/10/24 00:28:00;;;;;;;4.63;4.22;;;;;;;14.21;89.92;95018.47;6180751;23;20170;-90
2023/10/24 00:30:38;;;;;;;4.78;4.28;;;;;;;14.11;90.32;95012.97;6179943;23;20494;-89
2023/10/24 00:33:09;;;;;;;7.45;4.22;;;;;;;14.08;90.44;95016.75;6179800;23;20170;-90
2023/10/24 00:35:39;;;;;;;5.10;4.60;;;;;;;14.06;90.65;95031.72;6179772;23;20244;-90
2023/10/24 00:40:59;;;;;;;6.33;5.03;;;;;;;13.88;91.24;95031.66;6180266;23;20228;-89
2023/10/24 00:43:45;;;;;;;5.73;5.17;;;;;;;13.69;92.36;95054.06;6179859;23;20347;-90
2023/10/24 00:46:19;;;;;;;6.00;5.40;;;;;;;13.69;92.90;95058.44;6179901;23;20249;-89
2023/10/24 00:48:56;;;;;;;6.20;5.17;;;;;;;13.64;93.43;95072.03;6179912;23;20169;-89
2023/10/24 00:51:40;;;;;;;5.65;5.15;;;;;;;13.70;93.30;95083.31;6179804;23;20188;-88
2023/10/24 00:54:17;;;;;;;6.30;5.07;;;;;;;13.75;93.07;95078.31;6175697;23;20237;-89
2023/10/24 00:56:50;;;;;;;6.03;5.30;;;;;;;13.76;92.67;95074.72;6179983;23;20194;-89
2023/10/24 00:59:34;;;;;;;5.50;4.93;;;;;;;13.81;92.34;95087.84;6179915;23;20158;-90
2023/10/24 01:02:34;;;;;;;7.10;4.83;;;;;;;13.88;91.70;95060.13;6180929;23;20258;-90
2023/10/24 01:05:28;;;;;;;9.17;5.50;;;;;;;13.82;91.78;95051.41;6168847;23;20194;-90
2023/10/24 01:07:54;;;;;;;5.83;5.27;;;;;;;13.76;92.00;95067.75;6179948;23;20170;-89
2023/10/24 01:10:24;;;;;;;6.20;5.17;;;;;;;13.81;91.72;95065.34;6180128;23;20186;-90
2023/10/24 01:12:53;;;;;;;5.80;5.20;;;;;;;13.82;91.74;95056.59;6180272;23;20166;-91
2023/10/24 01:15:50;;;;;;;5.67;4.80;;;;;;;13.89;91.15;95040.22;6180266;23;20222;-90
2023/10/24 01:18:25;;;;;;;5.78;4.88;;;;;;;13.89;91.03;95048.75;6179806;23;20650;-89
2023/10/24 01:21:15;;;;;;;5.40;4.90;;;;;;;13.89;90.99;95059.13;6179933;23;20166;-91
2023/10/24 01:23:59;;;;;;;6.32;5.15;;;;;;;13.90;90.65;95046.97;6179551;23;20652;-90
2023/10/24 01:26:29;;;;;;;7.25;5.05;;;;;;;13.89;90.80;95050.56;6179982;23;20190;-89
2023/10/24 01:28:58;;;;;;;5.35;4.85;;;;;;;13.92;90.77;95043.16;6179468;23;20174;-90
2023/10/24 01:31:32;;;;;;;7.03;4.70;;;;;;;13.90;90.60;95024.47;6178949;23;20179;-90
2023/10/24 01:34:02;;;;;;;6.47;4.77;;;;;;;13.79;91.31;95031.13;6179399;23;20693;-90
2023/10/24 01:36:33;;;;;;;7.53;4.80;;;;;;;13.80;91.51;95042.28;6179451;23;20194;-89
2023/10/24 01:39:22;;;;;;;6.30;5.13;;;;;;;13.81;91.56;95029.13;6178996;23;20198;-89
2023/10/24 01:41:51;;;;;;;5.53;4.60;;;;;;;13.82;91.81;95027.34;6179916;23;20463;-90
2023/10/24 01:44:17;;;;;;;5.10;4.70;;;;;;;13.82;91.34;95030.72;6179831;23;20189;-89
2023/10/24 01:46:45;;;;;;;5.53;4.67;;;;;;;13.75;91.43;95042.09;6178999;23;20189;-89
2023/10/24 01:49:21;;;;;;;7.30;4.82;;;;;;;13.64;91.75;95041.00;6179599;23;20174;-90
2023/10/24 01:51:48;;;;;;;4.85;4.45;;;;;;;13.63;91.67;95054.13;6179223;23;20170;-89
2023/10/24 01:54:23;;;;;;;5.45;4.80;;;;;;;13.61;92.11;95045.78;6178992;23;20198;-89
2023/10/24 01:56:57;;;;;;;5.67;4.63;;;;;;;13.62;91.96;95048.16;6179182;23;20704;-89
2023/10/24 01:59:24;;;;;;;5.78;5.10;;;;;;;13.62;91.67;95048.16;6179328;23;20163;-90
2023/10/24 02:02:03;;;;;;;5.27;4.77;;;;;;;13.57;91.91;95042.81;6179666;23;20170;-90
2023/10/24 02:04:37;;;;;;;6.32;5.03;;;;;;;13.59;91.62;95050.38;6179484;23;20190;-89
2023/10/24 02:12:43;;;;;;;7.37;5.80;;;;;;;13.58;90.86;95044.41;6176603;23;20253;-89
2023/10/24 02:15:21;;;;;;;6.70;6.10;;;;;;;13.39;92.53;95060.81;6179586;23;20186;-89
2023/10/24 02:18:07;;;;;;;6.70;6.05;;;;;;;13.35;92.01;95057.03;6179891;23;20194;-89
2023/10/24 02:20:38;;;;;;;7.10;6.40;;;;;;;13.20;93.54;95072.03;6179593;23;20180;-89
2023/10/24 02:23:12;;;;;;;6.20;5.60;;;;;;;13.12;94.57;95075.59;6180322;23;20171;-89
2023/10/24 02:25:43;;;;;;;7.70;5.67;;;;;;;13.19;94.09;95073.03;6179805;23;20197;-89
2023/10/24 02:28:22;;;;;;;6.80;6.10;;;;;;;13.20;93.69;95052.16;6179662;23;20213;-89
2023/10/24 02:31:07;;;;;;;6.63;5.60;;;;;;;13.19;93.51;95047.19;6178747;23;20518;-89
2023/10/24 02:33:45;;;;;;;6.07;5.47;;;;;;;13.16;93.41;95045.00;6180045;23;20245;-89
2023/10/24 02:36:14;;;;;;;7.47;5.87;;;;;;;13.24;93.15;95048.16;6179038;23;20250;-88
2023/10/24 02:38:49;;;;;;;6.30;5.00;;;;;;;13.28;92.21;95027.84;6180987;23;20225;-90
2023/10/24 02:41:32;;;;;;;5.53;5.03;;;;;;;13.13;92.42;95017.75;6181837;23;20221;-90
2023/10/24 02:44:07;;;;;;;5.37;4.97;;;;;;;13.11;92.84;95017.94;6179613;23;20216;-89
2023/10/24 02:46:35;;;;;;;5.17;4.70;;;;;;;13.10;92.58;95016.34;6178959;23;20243;-89
2023/10/24 02:49:13;;;;;;;4.97;4.57;;;;;;;13.14;92.30;95008.97;6182224;23;20178;-89
2023/10/24 02:51:46;;;;;;;7.13;4.47;;;;;;;13.13;91.87;95015.16;6182731;23;20220;-89
2023/10/24 02:54:16;;;;;;;5.10;4.67;;;;;;;13.05;92.36;95015.41;6181755;23;20236;-88
2023/10/24 02:56:54;;;;;;;7.17;6.47;;;;;;;13.10;92.13;95018.94;6182243;23;20174;-89
2023/10/24 02:59:42;;;;;;;8.67;7.73;;;;;;;13.11;91.78;95010.19;6182139;23;20159;-89
2023/10/24 03:02:18;;;;;;;9.70;6.17;;;;;;;13.09;91.01;94993.28;6182715;23;20166;-89
2023/10/24 03:04:50;;;;;;;6.40;5.63;;;;;;;13.13;90.83;94987.50;6182467;23;20204;-89
2023/10/24 03:07:16;;;;;;;5.77;5.17;;;;;;;13.03;90.83;94973.47;6182046;23;20185;-89
2023/10/24 03:09:46;;;;;;;6.30;5.37;;;;;;;12.93;91.34;94968.72;6181422;23;20261;-89
2023/10/24 03:12:25;;;;;;;4.70;4.30;;;;;;;12.88;91.86;94983.28;6181911;23;20606;-89
2023/10/24 03:14:58;;;;;;;5.20;4.80;;;;;;;12.84;92.10;94995.81;6180644;23;20196;-89
2023/10/24 03:17:26;;;;;;;7.67;4.40;;;;;;;12.79;92.19;94998.19;6180950;23;20221;-92
2023/10/24 03:19:54;;;;;;;6.60;5.83;;;;;;;12.85;92.18;95012.91;6181101;23;20185;-90
2023/10/24 03:22:24;;;;;;;9.50;8.43;;;;;;;12.88;91.63;95002.16;6180742;23;20180;-90
2023/10/24 03:24:57;;;;;;;11.13;9.93;;;;;;;12.96;91.23;94996.75;6181407;23;20190;-91
2023/10/24 03:27:39;;;;;;;13.83;10.70;;;;;;;12.95;90.57;94974.47;6181536;23;20161;-90
2023/10/24 03:30:16;;;;;;;10.27;9.20;;;;;;;12.96;90.49;94963.16;6181058;23;20177;-89
2023/10/24 03:32:55;;;;;;;9.50;8.57;;;;;;;12.84;90.58;94946.72;6181019;23;20209;-90
2023/10/24 03:35:28;;;;;;;12.57;8.17;;;;;;;12.84;90.82;94945.94;6182052;23;20229;-89
2023/10/24 03:38:09;;;;;;;9.87;8.90;;;;;;;12.76;91.19;94940.00;6182026;23;20201;-89
2023/10/24 03:40:46;;;;;;;10.13;7.17;;;;;;;12.70;91.41;94945.97;6181510;23;20214;-89
2023/10/24 03:43:32;;;;;;;9.03;7.00;;;;;;;12.72;91.66;94938.81;6180864;23;20177;-89
2023/10/24 03:45:58;;;;;;;7.53;6.83;;;;;;;12.77;91.64;94939.00;6181167;23;20195;-89
2023/10/24 03:48:40;;;;;;;8.53;6.10;;;;;;;12.79;91.44;94936.22;6180500;23;20253;-89
2023/10/24 03:51:12;;;;;;;7.20;6.50;;;;;;;12.73;91.49;94942.97;6180798;23;20245;-89
2023/10/24 03:53:40;;;;;;;6.00;5.20;;;;;;;12.61;91.69;94936.88;6180951;23;20166;-89
2023/10/24 03:56:12;;;;;;;5.67;5.10;;;;;;;12.62;92.25;94953.97;6180770;23;20205;-91
2023/10/24 03:58:40;;;;;;;4.93;4.43;;;;;;;12.61;92.45;94961.91;6180841;23;20178;-89
2023/10/24 04:01:07;;;;;;;5.37;4.87;;;;;;;12.65;92.26;94955.34;6181334;23;20178;-89
2023/10/24 04:03:36;;;;;;;6.00;4.90;;;;;;;12.74;92.04;94957.47;6180419;23;20517;-89
2023/10/24 04:06:20;;;;;;;6.93;4.70;;;;;;;12.77;91.96;94951.13;6181108;23;20222;-89
2023/10/24 04:08:47;;;;;;;7.37;4.60;;;;;;;12.87;91.59;94930.81;6181749;23;20162;-89
2023/10/24 04:11:14;;;;;;;5.67;5.17;;;;;;;12.88;91.71;94916.91;6182126;23;20178;-88
2023/10/24 04:13:54;;;;;;;4.87;4.23;;;;;;;12.91;91.71;94913.88;6180859;23;20189;-89
2023/10/24 04:16:23;;;;;;;6.40;4.50;;;;;;;12.85;92.22;94927.66;6181801;23;20230;-90
2023/10/24 04:18:50;;;;;;;5.00;4.50;;;;;;;12.89;92.04;94926.22;6182757;23;20194;-88
2023/10/24 04:21:17;;;;;;;4.43;4.07;;;;;;;12.96;91.96;94921.81;6182605;23;20182;-87
2023/10/24 04:23:43;;;;;;;4.63;4.17;;;;;;;12.99;92.26;94926.56;6182963;23;20205;-88
2023/10/24 04:26:11;;;;;;;5.43;4.93;;;;;;;13.03;93.03;94943.25;6183046;23;20201;-89
2023/10/24 04:28:38;;;;;;;4.97;4.57;;;;;;;13.01;93.88;94947.81;6182961;23;20174;-87
2023/10/24 04:31:06;;;;;;;4.87;4.37;;;;;;;13.06;93.69;94945.41;6182597;23;20185;-88
2023/10/24 04:33:32;;;;;;;5.87;4.50;;;;;;;13.11;93.59;94930.06;6182517;23;20205;-89
2023/10/24 04:35:59;;;;;;;4.50;4.10;;;;;;;13.03;94.67;94937.28;6181368;23;20194;-87
2023/10/24 04:38:25;;;;;;;7.70;4.50;;;;;;;13.07;94.15;94918.59;6181172;23;20213;-87
2023/10/24 04:40:55;;;;;;;4.87;4.40;;;;;;;13.08;94.23;94914.97;6181927;23;20208;-88
2023/10/24 04:43:23;;;;;;;10.03;4.03;;;;;;;13.33;100.00;95026.22;6182555;23;20641;-89
2023/10/24 04:45:52;;;;;;;7.28;4.10;;;;;;;13.55;100.00;94998.25;6182430;23;20213;-87
2023/10/24 04:48:20;;;;;;;5.43;3.97;;;;;;;13.66;97.62;94966.53;6183291;23;20174;-88
2023/10/24 04:50:46;;;;;;;9.50;4.00;;;;;;;13.83;97.43;94956.47;6183685;23;20213;-86
2023/10/24 04:53:13;;;;;;;6.30;3.90;;;;;;;13.94;91.31;94872.16;6179068;23;20178;-87
2023/10/24 04:55:39;;;;;;;5.35;3.92;;;;;;;13.88;89.25;94834.97;6181412;23;20525;-87
2023/10/24 04:58:10;;;;;;;7.57;3.40;;;;;;;13.82;89.18;94828.09;6181770;23;20197;-87
2023/10/24 05:00:37;;;;;;;5.63;3.83;;;;;;;13.69;89.45;94831.59;6181190;23;20242;-88
2023/10/24 05:03:03;;;;;;;8.18;4.00;;;;;;;13.64;89.94;94833.25;6182331;23;20171;-87
2023/10/24 05:05:31;;;;;;;5.00;3.90;;;;;;;13.55;90.19;94839.69;6181383;23;20201;-88
2023/10/24 05:08:10;;;;;;;7.20;4.53;;;;;;;13.29;91.19;94846.66;6180820;23;20202;-88
2023/10/24 05:10:36;;;;;;;5.20;4.60;;;;;;;13.05;93.63;94883.59;6180820;23;20177;-88
2023/10/24 05:13:03;;;;;;;4.70;4.20;;;;;;;12.87;95.21;94904.19;6181599;23;20209;-87
2023/10/24 05:15:31;;;;;;;4.70;4.20;;;;;;;12.90;95.80;94909.72;6181290;23;20185;-88
2023/10/24 05:18:00;;;;;;;7.73;5.10;;;;;;;13.01;95.44;94914.22;6181595;23;20198;-89
2023/10/24 05:20:27;;;;;;;5.90;4.40;;;;;;;13.11;94.81;94909.38;6183200;23;20174;-87
2023/10/24 05:22:55;;;;;;;7.17;5.33;;;;;;;13.15;94.01;94907.22;6181539;23;20174;-87
2023/10/24 05:25:23;;;;;;;7.93;4.57;;;;;;;13.17;93.51;94896.66;6180286;23;20201;-87
2023/10/24 05:27:50;;;;;;;4.80;4.30;;;;;;;13.10;93.84;94907.81;6180378;23;20198;-87
2023/10/24 05:30:16;;;;;;;6.30;4.33;;;;;;;13.09;94.36;94924.31;6180892;23;20178;-87
2023/10/24 05:32:43;;;;;;;5.30;4.80;;;;;;;13.00;95.80;94950.63;6181600;23;20181;-87
2023/10/24 05:35:10;;;;;;;5.50;4.97;;;;;;;12.76;97.98;94967.59;6181474;23;20194;-87
2023/10/24 05:37:36;;;;;;;5.90;5.13;;;;;;;12.81;97.49;94962.63;6180902;23;20204;-87
2023/10/24 05:40:08;;;;;;;8.23;4.77;;;;;;;12.82;97.59;94969.38;6180536;23;20197;-87
2023/10/24 05:42:36;;;;;;;7.73;5.93;;;;;;;12.86;98.78;94973.16;6180534;23;20174;-87
2023/10/24 05:45:02;;;;;;;13.63;5.50;;;;;;;12.94;98.74;94972.09;6181380;23;20197;-87
2023/10/24 05:47:28;;;;;;;8.27;5.13;;;;;;;12.86;98.68;94962.81;6181573;23;20181;-86
2023/10/24 05:49:55;;;;;;;35.90;32.00;;;;;;;12.81;99.15;94970.38;6181302;23;20177;-88
2023/10/24 05:52:21;;;;;;;8.17;7.37;;;;;;;12.75;99.37;94955.69;6180719;23;20245;-88
2023/10/24 05:54:48;;;;;;;9.83;7.23;;;;;;;12.83;98.85;94954.69;6180042;23;20194;-87
2023/10/24 05:57:15;;;;;;;8.50;6.60;;;;;;;12.85;99.00;94958.63;6180326;23;20178;-88
2023/10/24 05:59:42;;;;;;;5.80;5.10;;;;;;;12.95;98.93;94965.94;6181462;23;20205;-87
2023/10/24 06:02:08;;;;;;;6.70;5.97;;;;;;;12.86;99.47;94959.44;6181535;23;20180;-87
2023/10/24 06:04:35;;;;;;;7.50;5.60;;;;;;;12.86;99.78;94956.84;6180578;23;20664;-87
2023/10/24 06:07:02;;;;;;;6.30;5.40;;;;;;;12.93;99.31;94950.63;6181467;23;20637;-86
2023/10/24 06:09:31;;;;;;;8.27;5.87;;;;;;;12.93;100.00;94942.88;6181004;23;20212;-87
2023/10/24 06:11:58;;;;;;;7.20;5.60;;;;;;;13.06;99.72;94934.28;6185687;23;20185;-87
2023/10/24 06:14:26;;;;;;;5.80;5.20;;;;;;;13.16;99.27;94923.53;6185691;23;20244;-87
2023/10/24 06:16:53;;;;;;;11.60;5.27;;;;;;;13.19;98.93;94907.59;6184972;23;20261;-88
2023/10/24 06:19:19;;;;;;;5.40;4.87;;;;;;;13.22;98.70;94905.38;6182527;23;20249;-88
2023/10/24 06:21:46;;;;;;;6.73;5.20;;;;;;;13.27;97.63;94902.97;6183678;23;20205;-88
2023/10/24 06:24:12;;;;;;;7.60;4.93;;;;;;;13.20;98.77;94902.22;6185323;23;20193;-87
2023/10/24 06:26:42;;;;;;;7.67;5.13;;;;;;;13.18;98.58;94883.53;6185897;23;20194;-87
2023/10/24 06:29:09;;;;;;;8.40;5.57;;;;;;;13.06;99.26;94898.13;6159790;23;20185;-87
2023/10/24 06:31:38;;;;;;;6.67;5.77;;;;;;;13.00;99.61;94901.53;6186222;23;20657;-88
2023/10/24 06:34:06;;;;;;;53.93;48.40;;;;;;;13.05;100.00;94891.34;6185190;23;20170;-87
2023/10/24 06:36:34;;;;;;;28.37;25.53;;;;;;;13.07;100.00;94889.38;6185121;23;20228;-87
2023/10/24 06:39:03;;;;;;;6.17;5.60;;;;;;;13.06;100.00;94896.31;6182567;23;20204;-87
2023/10/24 06:41:30;;;;;;;7.37;5.00;;;;;;;13.09;100.00;94903.63;6184482;23;20164;-87
2023/10/24 06:43:56;;;;;;;11.27;6.20;;;;;;;13.10;100.00;94907.81;6184848;23;20521;-87
2023/10/24 06:46:25;;;;;;;12.17;5.67;;;;;;;13.23;100.00;94898.44;6186153;23;20186;-88
2023/10/24 06:48:54;;;;;;;6.67;5.23;;;;;;;13.35;99.03;94889.78;6184887;23;20177;-87
2023/10/24 06:51:20;;;;;;;6.27;4.80;;;;;;;13.41;97.97;94870.84;6184949;23;20483;-88
2023/10/24 06:53:47;;;;;;;9.03;5.10;;;;;;;13.31;100.00;94886.03;6184232;23;20178;-87
2023/10/24 06:56:14;;;;;;;7.23;5.27;;;;;;;13.36;99.64;94887.97;6184641;23;20204;-88
2023/10/24 06:58:42;;;;;;;8.53;5.70;;;;;;;13.34;99.32;94877.84;6184371;23;20194;-88
2023/10/24 07:01:11;;;;;;;8.70;5.63;;;;;;;13.32;100.00;94900.53;6182834;23;20174;-88
2023/10/24 07:03:47;;;;;;;7.20;4.90;;;;;;;13.32;100.00;94923.81;6183902;23;20205;-88
2023/10/24 07:06:15;;;;;;;10.90;4.90;;;;;;;13.34;100.00;94932.16;6183015;23;20190;-88
2023/10/24 07:08:42;;;;;;;7.77;5.50;;;;;;;13.44;99.38;94904.03;6184660;23;20193;-89
2023/10/24 07:11:08;;;;;;;9.25;5.93;;;;;;;13.46;98.51;94877.97;6184312;23;20178;-88
2023/10/24 07:13:37;;;;;;;5.90;5.20;;;;;;;13.29;100.00;94893.19;6184586;23;20174;-89
2023/10/24 07:16:16;;;;;;;6.07;5.33;;;;;;;13.26;100.00;94896.22;6184198;23;20194;-89
2023/10/24 07:18:44;;;;;;;6.63;5.67;;;;;;;13.13;100.00;94904.81;6183877;23;20178;-88
2023/10/24 07:21:11;;;;;;;10.13;5.70;;;;;;;13.21;100.00;94905.59;6184954;23;20171;-88
2023/10/24 07:23:41;;;;;;;8.13;5.30;;;;;;;13.27;100.00;94897.00;6184417;23;20221;-87
2023/10/24 07:26:10;;;;;;;8.50;6.10;;;;;;;13.37;100.00;94902.50;6183574;23;20282;-88
2023/10/24 07:28:37;;;;;;;7.47;5.97;;;;;;;13.47;100.00;94895.03;6184434;23;20174;-88
2023/10/24 07:31:06;;;;;;;6.80;5.53;;;;;;;13.51;100.00;94890.25;6185875;23;20178;-87
2023/10/24 07:33:32;;;;;;;7.90;6.17;;;;;;;13.47;99.85;94882.91;6184363;23;20174;-88
2023/10/24 07:36:07;;;;;;;7.53;6.13;;;;;;;13.50;100.00;94894.63;6185726;23;20201;-88
2023/10/24 07:38:40;;;;;;;8.32;7.53;;;;;;;13.61;99.52;94875.06;6184209;23;20158;-88
2023/10/24 07:41:08;;;;;;;15.67;13.27;;;;;;;13.65;98.52;94860.72;6183716;23;20193;-87
2023/10/24 07:43:34;;;;;;;12.75;8.18;;;;;;;13.64;98.01;94856.53;6184112;23;20174;-87
2023/10/24 07:46:03;;;;;;;9.03;7.10;;;;;;;13.68;97.92;94852.50;6184557;23;20601;-86
2023/10/24 07:48:33;;;;;;;8.23;6.70;;;;;;;13.62;98.10;94851.56;6182895;23;20186;-88
2023/10/24 07:50:59;;;;;;;9.33;6.80;;;;;;;13.56;98.64;94856.78;6183361;23;20221;-88
2023/10/24 07:53:29;;;;;;;8.43;6.50;;;;;;;13.63;98.65;94845.41;6182648;23;20182;-87
2023/10/24 07:55:59;;;;;;;10.00;6.80;;;;;;;13.63;99.01;94852.38;6184538;23;20545;-88
2023/10/24 07:58:28;;;;;;;8.27;6.20;;;;;;;13.69;98.19;94851.50;6186655;23;20178;-88
2023/10/24 08:01:00;;;;;;;7.75;6.72;;;;;;;13.70;98.19;94848.69;6185930;23;20490;-88
2023/10/24 08:03:26;;;;;;;7.67;6.87;;;;;;;13.78;97.37;94832.13;6184570;23;20192;-87
2023/10/24 08:05:53;;;;;;;15.25;7.57;;;;;;;13.71;98.99;94836.56;6181879;23;20198;-90
2023/10/24 08:08:19;;;;;;;8.43;7.00;;;;;;;13.70;99.54;94843.53;6182524;23;20175;-89
2023/10/24 08:10:59;;;;;;;7.10;6.37;;;;;;;13.67;100.00;94845.72;6181920;23;20202;-90
2023/10/24 08:13:32;;;;;;;8.00;6.68;;;;;;;13.72;99.92;94838.94;6184660;23;20527;-89
2023/10/24 08:15:59;;;;;;;10.50;8.07;;;;;;;13.73;98.95;94840.50;6182161;23;20265;-89
2023/10/24 08:18:28;;;;;;;9.13;7.55;;;;;;;13.65;99.96;94852.94;6182382;23;20175;-89
2023/10/24 08:20:58;;;;;;;8.68;7.63;;;;;;;13.61;100.00;94865.50;6181203;23;20198;-90
2023/10/24 08:23:28;;;;;;;11.25;7.80;;;;;;;13.61;100.00;94873.28;6182101;23;20181;-89
2023/10/24 08:25:56;;;;;;;8.15;7.38;;;;;;;13.75;99.72;94869.53;6181717;23;20225;-90
2023/10/24 08:28:30;;;;;;;9.17;7.80;;;;;;;13.74;99.11;94846.47;6181473;23;20245;-90
2023/10/24 08:30:58;;;;;;;7.93;7.15;;;;;;;13.79;98.92;94833.69;6184488;23;20162;-89
2023/10/24 08:33:26;;;;;;;8.48;7.40;;;;;;;13.88;98.69;94829.00;6184119;23;20194;-88
2023/10/24 08:36:10;;;;;;;7.85;7.15;;;;;;;13.97;98.09;94818.19;6182447;23;20255;-88
2023/10/24 08:38:39;;;;;;;8.37;7.57;;;;;;;13.96;98.25;94808.03;6162205;23;20395;-88
2023/10/24 08:41:10;;;;;;;10.18;8.68;;;;;;;13.90;97.55;94791.56;6181817;23;20491;-89
2023/10/24 08:43:37;;;;;;;9.48;8.57;;;;;;;13.91;97.38;94787.19;6181782;23;20167;-89
2023/10/24 08:46:09;;;;;;;9.95;8.95;;;;;;;13.90;97.71;94796.75;6180408;23;20214;-88
2023/10/24 08:48:35;;;;;;;23.27;20.88;;;;;;;13.80;98.39;94804.22;6182689;23;20182;-87
2023/10/24 08:51:02;;;;;;;16.63;15.00;;;;;;;13.74;98.68;94810.25;6183244;23;20177;-88
2023/10/24 08:53:34;;;;;;;13.45;12.10;;;;;;;13.64;100.00;94834.03;6183081;23;20221;-88
2023/10/24 08:56:03;;;;;;;9.63;8.63;;;;;;;13.60;100.00;94848.41;6183993;23;20217;-88
2023/10/24 08:58:32;;;;;;;11.75;8.50;;;;;;;13.66;100.00;94851.94;6183722;23;20171;-88
2023/10/24 09:01:00;;;;;;;9.40;8.00;;;;;;;13.65;100.00;94842.59;6182294;23;20198;-88
2023/10/24 09:03:30;;;;;;;12.13;8.67;;;;;;;13.69;100.00;94847.09;6182431;23;20174;-88
2023/10/24 09:05:58;;;;;;;9.73;8.73;;;;;;;13.69;100.00;94841.16;6181399;23;20289;-88
2023/10/24 09:08:29;;;;;;;9.40;8.47;;;;;;;13.63;100.00;94852.38;6182149;23;20261;-88
2023/10/24 09:11:02;;;;;;;11.67;8.67;;;;;;;13.66;100.00;94852.69;6181753;23;20491;-89
2023/10/24 09:13:39;;;;;;;9.90;9.00;;;;;;;13.68;100.00;94848.09;6182188;23;20158;-88
2023/10/24 09:16:10;;;;;;;16.42;8.73;;;;;;;13.73;100.00;94845.69;6181379;23;20709;-89
2023/10/24 09:18:39;;;;;;;10.57;9.23;;;;;;;13.60;100.00;94845.03;6181872;23;20162;-88
2023/10/24 09:21:07;;;;;;;10.73;9.63;;;;;;;13.53;100.00;94845.06;6181356;23;20194;-88
2023/10/24 09:23:37;;;;;;;13.80;10.00;;;;;;;13.57;100.00;94845.44;6182401;23;20170;-89
2023/10/24 09:26:07;;;;;;;14.83;10.53;;;;;;;13.57;100.00;94854.00;6181650;23;20670;-89
2023/10/24 09:28:34;;;;;;;10.80;9.70;;;;;;;13.70;100.00;94843.53;6182239;23;20159;-88
2023/10/24 09:31:04;;;;;;;10.93;9.73;;;;;;;13.86;100.00;94816.28;6181076;23;20178;-88
2023/10/24 09:33:40;;;;;;;10.57;9.50;;;;;;;13.89;100.00;94820.25;6180853;23;20637;-88
2023/10/24 09:36:12;;;;;;;12.10;9.50;;;;;;;14.01;100.00;94805.59;6181940;23;20233;-88
2023/10/24 09:38:43;;;;;;;13.73;9.65;;;;;;;14.12;100.00;94794.50;6180766;23;20614;-88
2023/10/24 09:41:25;;;;;;;38.20;31.30;;;;;;;14.12;100.00;94805.66;6180016;23;20202;-88
2023/10/24 09:43:59;;;;;;;16.63;14.73;;;;;;;14.20;100.00;94801.19;6176575;23;20229;-88
2023/10/24 09:46:28;;;;;;;16.98;15.27;;;;;;;14.20;100.00;94806.38;6179901;23;20194;-88
2023/10/24 09:49:09;;;;;;;17.02;12.63;;;;;;;14.25;100.00;94802.09;6180600;23;20225;-88
2023/10/24 09:51:38;;;;;;;14.82;11.05;;;;;;;14.33;100.00;94781.09;6180721;23;20213;-88
2023/10/24 09:54:05;;;;;;;11.32;10.18;;;;;;;14.31;100.00;94788.28;6180740;23;20500;-88
2023/10/24 09:56:34;;;;;;;11.07;9.93;;;;;;;14.35;100.00;94773.13;6192675;23;20205;-87
2023/10/24 10:02:44;;;;;;;10.68;6.20;;;;;;;14.79;100.00;94810.81;5967789;24;20178;-90
2023/10/24 10:12:05;;;;;;;10.57;9.18;;;;;;;14.66;98.94;94710.72;6019857;23;20219;-90
2023/10/24 10:22:21;;;;;;;11.73;10.02;;;;;;;14.39;100.00;94728.44;6081991;23;20195;-89
2023/10/24 10:25:52;;;;;;;;;;;;;;;;;;;;;
2023/10/24 10:28:51;;;;;;;21.27;19.00;;;;;;;14.34;100.00;94724.91;6089711;23;20187;-89
2023/10/24 10:31:39;;;;;;;23.60;21.42;;;;;;;14.21;100.00;94744.03;6088426;23;20577;-88
2023/10/24 10:34:12;;;;;;;14.05;12.63;;;;;;;14.22;100.00;94748.19;6182160;23;20173;-89
2023/10/24 10:36:57;;;;;;;12.70;11.60;;;;;;;14.17;100.00;94742.88;6181771;23;20226;-89
2023/10/24 10:39:29;;;;;;;12.02;11.02;;;;;;;14.13;100.00;94750.28;6181950;23;20154;-89
2023/10/24 10:42:40;;;;;;;12.85;11.55;;;;;;;14.21;100.00;94735.47;6182174;23;20216;-89
2023/10/24 10:45:36;;;;;;;14.27;12.68;;;;;;;14.07;100.00;94729.66;6180312;23;20277;-88
2023/10/24 10:48:17;;;;;;;14.52;13.13;;;;;;;14.02;100.00;94732.13;6181166;23;20562;-89
2023/10/24 10:53:52;;;;;;;14.00;12.60;;;;;;;14.08;100.00;94715.69;6179992;23;20516;-89
2023/10/24 10:56:30;;;;;;;14.18;12.77;;;;;;;14.10;100.00;94703.34;6182173;23;20194;-89
2023/10/24 10:59:30;;;;;;;14.25;12.95;;;;;;;14.12;100.00;94711.66;6182299;23;20184;-89
2023/10/24 11:02:23;;;;;;;14.30;13.10;;;;;;;14.08;100.00;94731.22;6182890;23;20161;-89
2023/10/24 11:05:51;;;;;;;13.57;12.23;;;;;;;14.14;100.00;94725.97;6181526;23;20190;-89
2023/10/24 11:08:27;;;;;;;14.70;13.40;;;;;;;14.09;100.00;94725.03;6181779;23;20170;-89
2023/10/24 11:11:10;;;;;;;15.85;13.75;;;;;;;13.99;100.00;94723.00;6181776;23;20257;-88
2023/10/24 11:16:27;;;;;;;15.32;13.88;;;;;;;13.99;100.00;94750.66;6146193;23;20689;-89
2023/10/24 11:19:08;;;;;;;16.65;14.95;;;;;;;14.05;100.00;94757.53;6173698;23;20656;-90
2023/10/24 11:21:41;;;;;;;42.72;38.35;;;;;;;14.13;100.00;94757.25;6175276;23;20658;-87
2023/10/24 11:24:11;;;;;;;33.30;30.08;;;;;;;14.14;100.00;94754.47;6178124;23;20167;-89
2023/10/24 11:26:44;;;;;;;22.73;20.52;;;;;;;14.17;100.00;94748.06;6174445;23;20678;-88
2023/10/24 11:29:13;;;;;;;19.17;17.42;;;;;;;14.22;100.00;94745.59;6177352;23;20201;-89
2023/10/24 11:31:46;;;;;;;18.38;16.65;;;;;;;14.20;100.00;94737.25;6181086;23;20170;-89
2023/10/24 11:57:58;;;;;;;22.00;19.95;;;;;;;14.20;100.00;94746.84;5887926;23;20182;-88
2023/10/24 12:01:20;;;;;;;;;;;;;;;;;;;;;
2023/10/24 12:04:11;;;;;;;22.40;20.20;;;;;;;14.21;100.00;94751.78;6181587;23;20178;-89
2023/10/24 12:07:16;;;;;;;22.77;20.67;;;;;;;14.22;100.00;94750.78;6180673;23;20197;-88
2023/10/24 12:10:13;;;;;;;;;;;;;;;;;;;;;
2023/10/24 12:13:16;;;;;;;35.13;31.73;;;;;;;14.27;100.00;94744.94;6110758;23;20253;-88
2023/10/24 12:16:42;;;;;;;24.97;22.20;;;;;;;14.18;100.00;94749.63;6047355;23;20667;-88
2023/10/24 12:19:32;;;;;;;22.77;20.67;;;;;;;14.13;100.00;94760.63;6181268;23;20175;-88
2023/10/24 12:22:15;;;;;;;23.75;21.25;;;;;;;14.05;100.00;94762.72;6180971;23;20275;-88
2023/10/24 12:25:24;;;;;;;23.10;20.88;;;;;;;14.05;100.00;94763.50;6180834;23;20171;-89
2023/10/24 12:27:52;;;;;;;23.30;20.55;;;;;;;14.02;100.00;94774.31;6181245;23;20273;-87
2023/10/24 12:30:29;;;;;;;22.98;20.58;;;;;;;13.99;100.00;94779.13;6179717;23;20208;-89
2023/10/24 12:48:52;;;;;;;21.15;18.63;;;;;;;14.30;100.00;94749.66;6012398;23;20173;-89
2023/10/24 12:55:10;;;;;;;20.38;18.45;;;;;;;14.35;100.00;94758.38;6002125;23;20213;-88
2023/10/24 12:57:38;;;;;;;20.38;18.23;;;;;;;14.32;100.00;94756.22;6144549;23;20178;-88
2023/10/24 13:00:31;;;;;;;21.02;18.83;;;;;;;14.33;100.00;94764.78;6148497;23;20694;-88
2023/10/24 13:02:58;;;;;;;20.13;18.25;;;;;;;14.35;100.00;94767.94;6150148;23;20806;-88
2023/10/24 13:05:26;;;;;;;20.77;18.80;;;;;;;14.25;100.00;94785.78;6149951;23;20190;-88
2023/10/24 13:08:19;;;;;;;19.95;18.05;;;;;;;14.23;100.00;94782.66;6151279;23;20502;-88
2023/10/24 13:10:47;;;;;;;22.40;18.38;;;;;;;14.28;100.00;94785.34;6143041;23;20723;-89
2023/10/24 13:13:24;;;;;;;19.83;17.80;;;;;;;14.27;100.00;94776.00;6149658;23;20238;-89
2023/10/24 13:15:54;;;;;;;26.85;23.88;;;;;;;14.27;100.00;94769.03;6151065;23;20202;-89
2023/10/24 13:18:20;;;;;;;25.30;22.85;;;;;;;14.22;100.00;94768.13;6150235;23;20207;-89
2023/10/24 13:20:51;;;;;;;20.60;18.58;;;;;;;14.11;100.00;94782.56;6148350;23;20194;-88